sensor_id;sensor_type;location;lat;lon;timestamp;pressure;altitude;pressure_sealevel;temperature;humidity
54854;BME280;40747;49.480;8.658;2023-03-03T00:01:58;100648.03;;;3.58;80.84
54854;BME280;40747;49.480;8.658;2023-03-03T00:04:23;100644.56;;;3.53;81.04
54854;BME280;40747;49.480;8.658;2023-03-03T00:06:48;100645.41;;;3.46;81.04
54854;BME280;40747;49.480;8.658;2023-03-03T00:09:14;100638.44;;;3.37;81.43
54854;BME280;40747;49.480;8.658;2023-03-03T00:11:39;100642.78;;;3.42;81.00
54854;BME280;40747;49.480;8.658;2023-03-03T00:14:18;100640.19;;;3.47;81.06
54854;BME280;40747;49.480;8.658;2023-03-03T00:16:46;100641.91;;;3.34;80.75
54854;BME280;40747;49.480;8.658;2023-03-03T00:19:18;100639.28;;;3.33;80.89
54854;BME280;40747;49.480;8.658;2023-03-03T00:21:45;100644.50;;;3.39;81.00
54854;BME280;40747;49.480;8.658;2023-03-03T00:26:43;100654.06;;;3.41;80.88
54854;BME280;40747;49.480;8.658;2023-03-03T00:29:29;100627.84;;;3.00;81.13
54854;BME280;40747;49.480;8.658;2023-03-03T00:32:12;100655.72;;;3.21;81.07
54854;BME280;40747;49.480;8.658;2023-03-03T00:34:41;100647.91;;;3.18;80.82
54854;BME280;40747;49.480;8.658;2023-03-03T00:37:33;100654.84;;;3.19;81.43
54854;BME280;40747;49.480;8.658;2023-03-03T00:40:18;100660.91;;;3.15;81.19
54854;BME280;40747;49.480;8.658;2023-03-03T00:42:48;100659.16;;;3.17;81.75
54854;BME280;40747;49.480;8.658;2023-03-03T00:45:42;100659.16;;;3.17;81.50
54854;BME280;40747;49.480;8.658;2023-03-03T00:48:30;100665.25;;;3.17;81.17
54854;BME280;40747;49.480;8.658;2023-03-03T00:51:09;100660.91;;;3.18;81.69
54854;BME280;40747;49.480;8.658;2023-03-03T00:53:40;100667.00;;;3.20;81.67
54854;BME280;40747;49.480;8.658;2023-03-03T00:56:06;100663.50;;;3.16;81.31
54854;BME280;40747;49.480;8.658;2023-03-03T00:58:31;100660.88;;;3.11;81.13
54854;BME280;40747;49.480;8.658;2023-03-03T01:00:56;100669.53;;;3.07;81.59
54854;BME280;40747;49.480;8.658;2023-03-03T01:03:24;100666.88;;;3.03;81.45
54854;BME280;40747;49.480;8.658;2023-03-03T01:05:50;100665.09;;;2.92;81.31
54854;BME280;40747;49.480;8.658;2023-03-03T01:08:16;100673.81;;;2.98;81.58
54854;BME280;40747;49.480;8.658;2023-03-03T01:10:47;100655.53;;;2.85;82.39
54854;BME280;40747;49.480;8.658;2023-03-03T01:13:17;100670.31;;;2.92;81.94
54854;BME280;40747;49.480;8.658;2023-03-03T01:15:43;100668.53;;;2.87;81.78
54854;BME280;40747;49.480;8.658;2023-03-03T01:18:10;100674.66;;;2.90;82.05
54854;BME280;40747;49.480;8.658;2023-03-03T01:20:36;100661.53;;;2.79;82.96
54854;BME280;40747;49.480;8.658;2023-03-03T01:23:01;100669.25;;;2.66;83.14
54854;BME280;40747;49.480;8.658;2023-03-03T01:25:27;100666.66;;;2.67;82.83
54854;BME280;40747;49.480;8.658;2023-03-03T01:27:53;100656.25;;;2.66;82.27
54854;BME280;40747;49.480;8.658;2023-03-03T01:30:18;100663.16;;;2.60;81.99
54854;BME280;40747;49.480;8.658;2023-03-03T01:32:43;100658.00;;;2.64;82.34
54854;BME280;40747;49.480;8.658;2023-03-03T01:35:09;100649.72;;;2.09;82.55
54854;BME280;40747;49.480;8.658;2023-03-03T01:37:35;100657.56;;;2.14;84.10
54854;BME280;40747;49.480;8.658;2023-03-03T01:40:01;100666.22;;;2.11;84.58
54854;BME280;40747;49.480;8.658;2023-03-03T01:42:26;100667.19;;;2.23;84.55
54854;BME280;40747;49.480;8.658;2023-03-03T01:45:18;100660.31;;;2.31;84.14
54854;BME280;40747;49.480;8.658;2023-03-03T01:47:48;100667.97;;;2.17;85.15
54854;BME280;40747;49.480;8.658;2023-03-03T01:50:24;100660.16;;;2.12;85.75
54854;BME280;40747;49.480;8.658;2023-03-03T01:52:52;100665.34;;;2.12;85.17
54854;BME280;40747;49.480;8.658;2023-03-03T01:55:21;100646.28;;;2.10;84.41
54854;BME280;40747;49.480;8.658;2023-03-03T01:58:09;100658.50;;;2.21;84.50
54854;BME280;40747;49.480;8.658;2023-03-03T02:00:37;100656.78;;;2.21;84.41
54854;BME280;40747;49.480;8.658;2023-03-03T02:03:03;100654.19;;;2.23;84.19
54854;BME280;40747;49.480;8.658;2023-03-03T02:05:29;100649.66;;;2.03;84.43
54854;BME280;40747;49.480;8.658;2023-03-03T02:07:55;100648.72;;;1.96;84.80
54854;BME280;40747;49.480;8.658;2023-03-03T02:10:20;100642.69;;;1.96;84.18
54854;BME280;40747;49.480;8.658;2023-03-03T02:12:54;100653.16;;;2.08;84.41
54854;BME280;40747;49.480;8.658;2023-03-03T02:15:24;100648.81;;;2.04;83.79
54854;BME280;40747;49.480;8.658;2023-03-03T02:17:55;100646.88;;;1.83;84.03
54854;BME280;40747;49.480;8.658;2023-03-03T02:20:38;100643.44;;;1.86;84.23
54854;BME280;40747;49.480;8.658;2023-03-03T02:23:16;100605.88;;;1.51;83.36
54854;BME280;40747;49.480;8.658;2023-03-03T02:28:23;100649.28;;;1.66;83.28
54854;BME280;40747;49.480;8.658;2023-03-03T02:30:53;100640.63;;;1.66;83.09
54854;BME280;40747;49.480;8.658;2023-03-03T02:33:19;100612.88;;;1.60;83.56
54854;BME280;40747;49.480;8.658;2023-03-03T02:35:44;100636.47;;;1.82;83.27
54854;BME280;40747;49.480;8.658;2023-03-03T02:38:39;100645.91;;;1.75;83.14
54854;BME280;40747;49.480;8.658;2023-03-03T02:46:11;100644.91;;;1.62;83.11
54854;BME280;40747;49.480;8.658;2023-03-03T02:48:36;100642.44;;;1.73;82.84
54854;BME280;40747;49.480;8.658;2023-03-03T02:51:02;100646.47;;;1.46;83.49
54854;BME280;40747;49.480;8.658;2023-03-03T02:53:27;100642.81;;;1.30;84.30
54854;BME280;40747;49.480;8.658;2023-03-03T02:55:52;100636.75;;;1.29;84.66
54854;BME280;40747;49.480;8.658;2023-03-03T02:58:18;100640.28;;;1.33;84.45
54854;BME280;40747;49.480;8.658;2023-03-03T03:00:43;100639.28;;;1.25;84.16
54854;BME280;40747;49.480;8.658;2023-03-03T03:03:11;100632.31;;;1.21;84.39
54854;BME280;40747;49.480;8.658;2023-03-03T03:05:37;100641.97;;;1.31;84.57
54854;BME280;40747;49.480;8.658;2023-03-03T03:08:02;100633.06;;;1.12;84.07
54854;BME280;40747;49.480;8.658;2023-03-03T03:10:27;100634.81;;;1.11;84.75
54854;BME280;40747;49.480;8.658;2023-03-03T03:12:53;100641.50;;;0.95;85.41
54854;BME280;40747;49.480;8.658;2023-03-03T03:15:18;100651.00;;;0.93;86.17
54854;BME280;40747;49.480;8.658;2023-03-03T03:17:43;100652.63;;;0.88;86.09
54854;BME280;40747;49.480;8.658;2023-03-03T03:20:09;100651.94;;;0.98;86.01
54854;BME280;40747;49.480;8.658;2023-03-03T03:22:35;100645.97;;;1.07;86.72
54854;BME280;40747;49.480;8.658;2023-03-03T03:25:00;100647.81;;;1.14;86.69
54854;BME280;40747;49.480;8.658;2023-03-03T03:27:25;100640.00;;;1.13;86.39
54854;BME280;40747;49.480;8.658;2023-03-03T03:29:51;100648.72;;;1.17;86.03
54854;BME280;40747;49.480;8.658;2023-03-03T03:32:16;100650.81;;;0.82;86.62
54854;BME280;40747;49.480;8.658;2023-03-03T03:34:42;100640.25;;;0.67;87.86
54854;BME280;40747;49.480;8.658;2023-03-03T03:37:07;100646.19;;;0.61;88.78
54854;BME280;40747;49.480;8.658;2023-03-03T03:39:34;100648.41;;;0.37;88.75
54854;BME280;40747;49.480;8.658;2023-03-03T03:41:59;100649.66;;;0.60;89.06
54854;BME280;40747;49.480;8.658;2023-03-03T03:44:25;100657.69;;;0.79;88.88
54854;BME280;40747;49.480;8.658;2023-03-03T03:46:50;100660.28;;;0.80;88.31
54854;BME280;40747;49.480;8.658;2023-03-03T03:49:15;100650.91;;;0.89;87.98
54854;BME280;40747;49.480;8.658;2023-03-03T03:51:40;100646.47;;;0.81;87.89
54854;BME280;40747;49.480;8.658;2023-03-03T03:54:06;100672.25;;;0.69;87.96
54854;BME280;40747;49.480;8.658;2023-03-03T03:56:32;100660.88;;;0.61;88.52
54854;BME280;40747;49.480;8.658;2023-03-03T03:58:57;100662.81;;;0.74;88.49
54854;BME280;40747;49.480;8.658;2023-03-03T04:01:22;100667.09;;;0.72;88.24
54854;BME280;40747;49.480;8.658;2023-03-03T04:03:47;100667.81;;;0.62;87.40
54854;BME280;40747;49.480;8.658;2023-03-03T04:06:13;100662.19;;;0.34;86.52
54854;BME280;40747;49.480;8.658;2023-03-03T04:08:39;100671.75;;;0.38;86.07
54854;BME280;40747;49.480;8.658;2023-03-03T04:11:04;100673.56;;;0.42;85.72
54854;BME280;40747;49.480;8.658;2023-03-03T04:13:29;100668.53;;;0.53;85.87
54854;BME280;40747;49.480;8.658;2023-03-03T04:15:56;100667.59;;;0.49;84.89
54854;BME280;40747;49.480;8.658;2023-03-03T04:18:21;100666.72;;;0.47;84.67
54854;BME280;40747;49.480;8.658;2023-03-03T04:20:46;100664.19;;;0.51;84.87
54854;BME280;40747;49.480;8.658;2023-03-03T04:23:12;100667.63;;;0.51;84.69
54854;BME280;40747;49.480;8.658;2023-03-03T04:25:39;100665.31;;;0.67;84.04
54854;BME280;40747;49.480;8.658;2023-03-03T04:28:04;100654.72;;;0.54;83.72
54854;BME280;40747;49.480;8.658;2023-03-03T04:30:30;100674.88;;;0.71;83.77
54854;BME280;40747;49.480;8.658;2023-03-03T04:32:55;100667.13;;;0.75;83.30
54854;BME280;40747;49.480;8.658;2023-03-03T04:35:20;100629.84;;;0.64;82.62
54854;BME280;40747;49.480;8.658;2023-03-03T04:37:46;100668.19;;;0.88;82.19
54854;BME280;40747;49.480;8.658;2023-03-03T04:40:11;100649.91;;;0.80;82.12
54854;BME280;40747;49.480;8.658;2023-03-03T04:42:36;100662.09;;;0.85;81.92
54854;BME280;40747;49.480;8.658;2023-03-03T04:45:03;100677.78;;;0.94;81.80
54854;BME280;40747;49.480;8.658;2023-03-03T04:47:28;100644.81;;;0.87;82.43
54854;BME280;40747;49.480;8.658;2023-03-03T04:49:53;100677.91;;;1.03;81.39
54854;BME280;40747;49.480;8.658;2023-03-03T04:52:19;100677.81;;;0.97;81.75
54854;BME280;40747;49.480;8.658;2023-03-03T04:54:44;100666.41;;;0.86;81.41
54854;BME280;40747;49.480;8.658;2023-03-03T04:57:09;100682.13;;;0.93;81.16
54854;BME280;40747;49.480;8.658;2023-03-03T04:59:35;100671.78;;;0.96;81.27
54854;BME280;40747;49.480;8.658;2023-03-03T05:02:00;100666.56;;;0.93;80.55
54854;BME280;40747;49.480;8.658;2023-03-03T05:04:26;100687.44;;;1.04;80.53
54854;BME280;40747;49.480;8.658;2023-03-03T05:06:51;100675.34;;;1.05;80.71
54854;BME280;40747;49.480;8.658;2023-03-03T05:09:16;100692.56;;;1.00;80.64
54854;BME280;40747;49.480;8.658;2023-03-03T05:11:42;100697.38;;;0.73;81.66
54854;BME280;40747;49.480;8.658;2023-03-03T05:14:07;100701.72;;;0.22;82.98
54854;BME280;40747;49.480;8.658;2023-03-03T05:16:32;100707.72;;;0.20;83.77
54854;BME280;40747;49.480;8.658;2023-03-03T05:18:57;100715.81;;;-0.09;84.97
54854;BME280;40747;49.480;8.658;2023-03-03T05:21:23;100712.03;;;-0.27;86.30
54854;BME280;40747;49.480;8.658;2023-03-03T05:23:48;100718.38;;;-0.11;86.78
54854;BME280;40747;49.480;8.658;2023-03-03T05:26:14;100737.47;;;-0.06;86.52
54854;BME280;40747;49.480;8.658;2023-03-03T05:28:39;100724.75;;;-0.38;87.55
54854;BME280;40747;49.480;8.658;2023-03-03T05:31:04;100728.41;;;-0.28;88.57
54854;BME280;40747;49.480;8.658;2023-03-03T05:33:30;100726.28;;;-0.03;87.80
54854;BME280;40747;49.480;8.658;2023-03-03T05:35:56;100719.56;;;0.05;87.00
54854;BME280;40747;49.480;8.658;2023-03-03T05:38:23;100707.28;;;-0.04;86.57
54854;BME280;40747;49.480;8.658;2023-03-03T05:40:48;100730.00;;;0.11;86.81
54854;BME280;40747;49.480;8.658;2023-03-03T05:43:14;100723.97;;;0.12;86.41
54854;BME280;40747;49.480;8.658;2023-03-03T05:45:39;100728.41;;;0.18;86.03
54854;BME280;40747;49.480;8.658;2023-03-03T05:48:04;100740.47;;;0.18;85.82
54854;BME280;40747;49.480;8.658;2023-03-03T05:50:30;100734.06;;;-0.03;85.94
54854;BME280;40747;49.480;8.658;2023-03-03T05:52:56;100747.66;;;-0.56;87.20
54854;BME280;40747;49.480;8.658;2023-03-03T05:55:23;100734.47;;;-1.05;91.30
54854;BME280;40747;49.480;8.658;2023-03-03T05:57:48;100752.91;;;-0.91;90.92
54854;BME280;40747;49.480;8.658;2023-03-03T06:00:16;100751.31;;;-1.58;92.85
54854;BME280;40747;49.480;8.658;2023-03-03T06:02:42;100752.91;;;-1.95;94.22
54854;BME280;40747;49.480;8.658;2023-03-03T06:05:08;100750.56;;;-2.18;97.40
54854;BME280;40747;49.480;8.658;2023-03-03T06:07:34;100749.13;;;-2.08;98.68
54854;BME280;40747;49.480;8.658;2023-03-03T06:09:59;100743.03;;;-1.78;100.00
54854;BME280;40747;49.480;8.658;2023-03-03T06:12:25;100749.88;;;-1.46;100.00
54854;BME280;40747;49.480;8.658;2023-03-03T06:14:50;100731.47;;;-1.24;98.68
54854;BME280;40747;49.480;8.658;2023-03-03T06:17:16;100743.31;;;-0.97;97.59
54854;BME280;40747;49.480;8.658;2023-03-03T06:22:08;100738.81;;;-0.66;94.48
54854;BME280;40747;49.480;8.658;2023-03-03T06:24:34;100749.22;;;-0.63;94.06
54854;BME280;40747;49.480;8.658;2023-03-03T06:27:00;100756.47;;;-0.46;92.86
54854;BME280;40747;49.480;8.658;2023-03-03T06:29:26;100756.44;;;-0.50;91.79
54854;BME280;40747;49.480;8.658;2023-03-03T06:31:51;100756.50;;;-0.45;91.66
54854;BME280;40747;49.480;8.658;2023-03-03T06:34:17;100755.75;;;-0.41;91.30
54854;BME280;40747;49.480;8.658;2023-03-03T06:36:42;100751.75;;;-0.25;91.00
54854;BME280;40747;49.480;8.658;2023-03-03T06:39:07;100766.56;;;-0.19;90.68
54854;BME280;40747;49.480;8.658;2023-03-03T06:41:33;100756.44;;;-0.05;89.99
54854;BME280;40747;49.480;8.658;2023-03-03T06:43:58;100761.19;;;0.16;89.15
54854;BME280;40747;49.480;8.658;2023-03-03T06:46:24;100762.13;;;0.21;89.13
54854;BME280;40747;49.480;8.658;2023-03-03T06:48:50;100777.94;;;0.34;88.30
54854;BME280;40747;49.480;8.658;2023-03-03T06:51:22;100791.22;;;0.52;88.71
54854;BME280;40747;49.480;8.658;2023-03-03T06:53:54;100788.03;;;0.67;88.51
54854;BME280;40747;49.480;8.658;2023-03-03T06:56:22;100796.72;;;0.69;88.92
54854;BME280;40747;49.480;8.658;2023-03-03T06:58:48;100808.13;;;0.33;86.86
54854;BME280;40747;49.480;8.658;2023-03-03T07:01:16;100815.13;;;-0.07;87.94
54854;BME280;40747;49.480;8.658;2023-03-03T07:03:41;100815.09;;;-0.09;88.04
54854;BME280;40747;49.480;8.658;2023-03-03T07:06:16;100820.78;;;-0.27;88.39
54854;BME280;40747;49.480;8.658;2023-03-03T07:08:43;100822.50;;;-0.64;89.94
54854;BME280;40747;49.480;8.658;2023-03-03T07:11:11;100828.19;;;-0.80;91.88
54854;BME280;40747;49.480;8.658;2023-03-03T07:13:43;100831.19;;;-0.62;92.85
54854;BME280;40747;49.480;8.658;2023-03-03T07:16:12;100827.66;;;-0.26;92.43
54854;BME280;40747;49.480;8.658;2023-03-03T07:18:57;100825.91;;;0.13;90.88
54854;BME280;40747;49.480;8.658;2023-03-03T07:21:32;100825.41;;;0.32;90.28
54854;BME280;40747;49.480;8.658;2023-03-03T07:23:59;100824.34;;;0.70;89.72
54854;BME280;40747;49.480;8.658;2023-03-03T07:26:27;100811.59;;;0.79;88.31
54854;BME280;40747;49.480;8.658;2023-03-03T07:29:15;100818.13;;;1.11;87.83
54854;BME280;40747;49.480;8.658;2023-03-03T07:31:46;100818.47;;;1.34;86.59
54854;BME280;40747;49.480;8.658;2023-03-03T07:34:24;100816.94;;;1.47;86.14
54854;BME280;40747;49.480;8.658;2023-03-03T07:37:00;100816.09;;;1.48;85.66
54854;BME280;40747;49.480;8.658;2023-03-03T07:39:36;100819.59;;;1.49;85.73
54854;BME280;40747;49.480;8.658;2023-03-03T07:44:34;100831.22;;;1.75;84.69
54854;BME280;40747;49.480;8.658;2023-03-03T07:47:16;100832.09;;;1.79;84.24
54854;BME280;40747;49.480;8.658;2023-03-03T07:49:42;100836.34;;;1.72;84.93
54854;BME280;40747;49.480;8.658;2023-03-03T07:52:45;100802.16;;;1.41;86.22
54854;BME280;40747;49.480;8.658;2023-03-03T07:55:33;100846.81;;;1.78;86.18
54854;BME280;40747;49.480;8.658;2023-03-03T07:58:34;100845.78;;;1.64;86.21
54854;BME280;40747;49.480;8.658;2023-03-03T08:04:40;100846.28;;;1.41;88.38
54854;BME280;40747;49.480;8.658;2023-03-03T08:07:29;100854.81;;;1.34;88.88
54854;BME280;40747;49.480;8.658;2023-03-03T08:10:00;100859.00;;;1.24;89.52
54854;BME280;40747;49.480;8.658;2023-03-03T08:12:40;100867.75;;;1.29;89.54
54854;BME280;40747;49.480;8.658;2023-03-03T08:15:17;100872.38;;;1.51;89.63
54854;BME280;40747;49.480;8.658;2023-03-03T08:17:43;100882.03;;;1.58;89.38
54854;BME280;40747;49.480;8.658;2023-03-03T08:20:38;100880.28;;;1.58;89.31
54854;BME280;40747;49.480;8.658;2023-03-03T08:23:05;100879.34;;;1.52;89.49
54854;BME280;40747;49.480;8.658;2023-03-03T08:25:31;100879.44;;;1.58;86.50
54854;BME280;40747;49.480;8.658;2023-03-03T08:27:56;100887.09;;;1.50;86.65
54854;BME280;40747;49.480;8.658;2023-03-03T08:30:21;100876.63;;;1.44;86.85
54854;BME280;40747;49.480;8.658;2023-03-03T08:32:47;100876.00;;;1.60;86.72
54854;BME280;40747;49.480;8.658;2023-03-03T08:35:12;100867.63;;;1.82;86.64
54854;BME280;40747;49.480;8.658;2023-03-03T08:37:37;100870.50;;;2.02;85.41
54854;BME280;40747;49.480;8.658;2023-03-03T08:40:03;100875.03;;;2.17;84.94
54854;BME280;40747;49.480;8.658;2023-03-03T08:42:29;100869.50;;;2.61;83.27
54854;BME280;40747;49.480;8.658;2023-03-03T08:44:54;100823.31;;;2.40;81.92
54854;BME280;40747;49.480;8.658;2023-03-03T08:47:20;100848.59;;;1.83;84.29
54854;BME280;40747;49.480;8.658;2023-03-03T08:49:45;100862.19;;;1.63;86.00
54854;BME280;40747;49.480;8.658;2023-03-03T08:52:10;100857.22;;;1.80;86.21
54854;BME280;40747;49.480;8.658;2023-03-03T08:54:35;100862.69;;;1.99;86.78
54854;BME280;40747;49.480;8.658;2023-03-03T08:57:01;100855.84;;;2.05;86.38
54854;BME280;40747;49.480;8.658;2023-03-03T08:59:26;100867.69;;;2.55;84.78
54854;BME280;40747;49.480;8.658;2023-03-03T09:01:52;100870.66;;;2.88;81.52
54854;BME280;40747;49.480;8.658;2023-03-03T09:04:17;100866.31;;;2.91;82.81
54854;BME280;40747;49.480;8.658;2023-03-03T09:06:42;100887.31;;;3.10;81.67
54854;BME280;40747;49.480;8.658;2023-03-03T09:09:07;100887.38;;;3.18;81.12
54854;BME280;40747;49.480;8.658;2023-03-03T09:11:33;100873.47;;;3.13;81.38
54854;BME280;40747;49.480;8.658;2023-03-03T09:14:06;100871.03;;;3.36;80.75
54854;BME280;40747;49.480;8.658;2023-03-03T09:16:38;100879.63;;;3.22;80.60
54854;BME280;40747;49.480;8.658;2023-03-03T09:21:52;100868.78;;;3.90;80.29
54854;BME280;40747;49.480;8.658;2023-03-03T09:24:26;100873.09;;;3.82;79.00
54854;BME280;40747;49.480;8.658;2023-03-03T09:26:52;100878.34;;;3.86;79.51
54854;BME280;40747;49.480;8.658;2023-03-03T09:29:26;100871.31;;;3.73;79.81
54854;BME280;40747;49.480;8.658;2023-03-03T09:31:55;100878.38;;;3.97;79.55
54854;BME280;40747;49.480;8.658;2023-03-03T09:37:10;100881.97;;;4.15;79.88
54854;BME280;40747;49.480;8.658;2023-03-03T09:39:39;100866.44;;;4.55;78.96
54854;BME280;40747;49.480;8.658;2023-03-03T09:51:17;100869.16;;;4.87;77.35
54854;BME280;40747;49.480;8.658;2023-03-03T09:56:34;100867.41;;;5.03;77.49
54854;BME280;40747;49.480;8.658;2023-03-03T09:59:34;100872.66;;;5.30;76.83
54854;BME280;40747;49.480;8.658;2023-03-03T10:04:55;100879.56;;;5.79;75.79
54854;BME280;40747;49.480;8.658;2023-03-03T10:08:30;100875.19;;;5.87;74.01
54854;BME280;40747;49.480;8.658;2023-03-03T10:10:47;100884.75;;;6.10;74.45
54854;BME280;40747;49.480;8.658;2023-03-03T10:13:30;100884.81;;;5.83;74.29
54854;BME280;40747;49.480;8.658;2023-03-03T10:18:57;100884.72;;;6.19;74.21
54854;BME280;40747;49.480;8.658;2023-03-03T10:21:38;100890.00;;;5.94;74.79
54854;BME280;40747;49.480;8.658;2023-03-03T10:24:29;100890.84;;;6.13;73.88
54854;BME280;40747;49.480;8.658;2023-03-03T10:30:09;100889.09;;;6.12;74.54
54854;BME280;40747;49.480;8.658;2023-03-03T10:32:53;100896.00;;;6.39;74.06
54854;BME280;40747;49.480;8.658;2023-03-03T10:39:14;100861.88;;;6.56;73.24
54854;BME280;40747;49.480;8.658;2023-03-03T10:41:52;100871.34;;;6.76;71.77
54854;BME280;40747;49.480;8.658;2023-03-03T10:52:32;100884.56;;;6.59;72.79
54854;BME280;40747;49.480;8.658;2023-03-03T11:08:50;100886.78;;;7.18;72.42
54854;BME280;40747;49.480;8.658;2023-03-03T11:13:55;100881.75;;;6.93;71.95
54854;BME280;40747;49.480;8.658;2023-03-03T11:20:07;100885.00;;;7.23;71.67
54854;BME280;40747;49.480;8.658;2023-03-03T11:22:51;100884.03;;;7.35;70.99
54854;BME280;40747;49.480;8.658;2023-03-03T11:33:01;100876.88;;;7.54;70.24
54854;BME280;40747;49.480;8.658;2023-03-03T11:35:50;100876.09;;;7.46;69.81
54854;BME280;40747;49.480;8.658;2023-03-03T11:38:58;100869.91;;;7.53;70.69
54854;BME280;40747;49.480;8.658;2023-03-03T11:44:15;100858.44;;;7.65;69.98
54854;BME280;40747;49.480;8.658;2023-03-03T11:46:51;100866.25;;;7.68;69.31
54854;BME280;40747;49.480;8.658;2023-03-03T11:49:23;100854.88;;;7.70;70.06
54854;BME280;40747;49.480;8.658;2023-03-03T11:57:42;100848.75;;;7.68;69.41
54854;BME280;40747;49.480;8.658;2023-03-03T12:00:40;100860.66;;;8.02;69.45
54854;BME280;40747;49.480;8.658;2023-03-03T12:16:50;100841.84;;;8.37;68.60
54854;BME280;40747;49.480;8.658;2023-03-03T12:19:24;100839.13;;;8.45;67.45
54854;BME280;40747;49.480;8.658;2023-03-03T12:22:26;100835.78;;;8.32;67.24
54854;BME280;40747;49.480;8.658;2023-03-03T12:25:00;100826.72;;;8.57;66.77
54854;BME280;40747;49.480;8.658;2023-03-03T12:27:38;100823.56;;;8.31;66.71
54854;BME280;40747;49.480;8.658;2023-03-03T12:36:12;100799.56;;;9.15;63.69
54854;BME280;40747;49.480;8.658;2023-03-03T12:41:44;100799.91;;;9.45;63.87
54854;BME280;40747;49.480;8.658;2023-03-03T12:44:35;100796.00;;;9.66;63.38
54854;BME280;40747;49.480;8.658;2023-03-03T12:47:15;100795.47;;;9.47;62.12
54854;BME280;40747;49.480;8.658;2023-03-03T12:49:56;100786.03;;;9.37;62.95
54854;BME280;40747;49.480;8.658;2023-03-03T12:52:52;100790.94;;;9.07;63.37
54854;BME280;40747;49.480;8.658;2023-03-03T13:01:29;100777.47;;;9.27;62.28
54854;BME280;40747;49.480;8.658;2023-03-03T13:04:34;100773.88;;;9.31;63.38
54854;BME280;40747;49.480;8.658;2023-03-03T13:07:13;100770.81;;;9.55;63.27
54854;BME280;40747;49.480;8.658;2023-03-03T13:12:35;100769.69;;;9.21;63.33
54854;BME280;40747;49.480;8.658;2023-03-03T13:15:23;100772.88;;;9.39;62.66
54854;BME280;40747;49.480;8.658;2023-03-03T13:23:37;100772.16;;;9.76;62.47
54854;BME280;40747;49.480;8.658;2023-03-03T13:31:51;100754.69;;;9.73;62.16
54854;BME280;40747;49.480;8.658;2023-03-03T13:34:40;100736.13;;;9.79;61.75
54854;BME280;40747;49.480;8.658;2023-03-03T13:37:37;100754.25;;;9.95;60.45
54854;BME280;40747;49.480;8.658;2023-03-03T13:42:41;100759.94;;;9.72;61.10
54854;BME280;40747;49.480;8.658;2023-03-03T13:47:45;100762.38;;;9.82;59.82
54854;BME280;40747;49.480;8.658;2023-03-03T13:50:26;100749.69;;;9.58;60.15
54854;BME280;40747;49.480;8.658;2023-03-03T13:55:46;100750.63;;;9.55;59.52
54854;BME280;40747;49.480;8.658;2023-03-03T13:58:39;100745.91;;;9.73;60.45
54854;BME280;40747;49.480;8.658;2023-03-03T14:01:16;100740.28;;;9.91;60.43
54854;BME280;40747;49.480;8.658;2023-03-03T14:06:47;100727.25;;;9.85;59.15
54854;BME280;40747;49.480;8.658;2023-03-03T14:09:33;100736.22;;;9.75;59.20
54854;BME280;40747;49.480;8.658;2023-03-03T14:12:25;100721.19;;;9.81;59.18
54854;BME280;40747;49.480;8.658;2023-03-03T14:15:28;100728.06;;;9.87;58.42
54854;BME280;40747;49.480;8.658;2023-03-03T14:20:37;100709.25;;;9.65;59.99
54854;BME280;40747;49.480;8.658;2023-03-03T14:23:30;100711.72;;;9.29;60.29
54854;BME280;40747;49.480;8.658;2023-03-03T14:28:29;100707.84;;;9.47;60.78
54854;BME280;40747;49.480;8.658;2023-03-03T14:31:28;100703.25;;;9.58;59.41
54854;BME280;40747;49.480;8.658;2023-03-03T14:34:03;100705.63;;;9.71;60.19
54854;BME280;40747;49.480;8.658;2023-03-03T14:36:40;100705.53;;;9.75;59.05
54854;BME280;40747;49.480;8.658;2023-03-03T14:39:36;100713.53;;;9.69;59.38
54854;BME280;40747;49.480;8.658;2023-03-03T14:42:12;100710.84;;;9.72;59.49
54854;BME280;40747;49.480;8.658;2023-03-03T14:49:37;100715.03;;;9.82;58.68
54854;BME280;40747;49.480;8.658;2023-03-03T14:52:17;100708.25;;;9.71;57.66
54854;BME280;40747;49.480;8.658;2023-03-03T14:54:45;100707.47;;;9.67;58.15
54854;BME280;40747;49.480;8.658;2023-03-03T14:57:15;100711.78;;;9.70;58.53
54854;BME280;40747;49.480;8.658;2023-03-03T15:02:24;100704.38;;;9.89;58.74
54854;BME280;40747;49.480;8.658;2023-03-03T15:05:11;100705.19;;;9.91;59.29
54854;BME280;40747;49.480;8.658;2023-03-03T15:07:37;100710.19;;;10.03;58.88
54854;BME280;40747;49.480;8.658;2023-03-03T15:10:05;100699.28;;;9.81;57.75
54854;BME280;40747;49.480;8.658;2023-03-03T15:20:20;100710.81;;;9.74;57.87
54854;BME280;40747;49.480;8.658;2023-03-03T15:26:06;100702.41;;;9.56;58.02
54854;BME280;40747;49.480;8.658;2023-03-03T15:40:01;100717.09;;;9.66;58.63
54854;BME280;40747;49.480;8.658;2023-03-03T15:45:34;100711.19;;;9.57;60.36
54854;BME280;40747;49.480;8.658;2023-03-03T15:51:07;100722.69;;;9.49;60.67
54854;BME280;40747;49.480;8.658;2023-03-03T15:56:57;100720.34;;;8.87;61.60
54854;BME280;40747;49.480;8.658;2023-03-03T16:02:23;100730.72;;;8.40;62.75
54854;BME280;40747;49.480;8.658;2023-03-03T16:04:58;100735.06;;;8.40;63.27
54854;BME280;40747;49.480;8.658;2023-03-03T16:07:39;100724.53;;;8.41;63.49
54854;BME280;40747;49.480;8.658;2023-03-03T16:13:25;100736.13;;;8.28;64.19
54854;BME280;40747;49.480;8.658;2023-03-03T16:19:19;100734.44;;;8.22;65.06
54854;BME280;40747;49.480;8.658;2023-03-03T16:24:56;100740.00;;;8.02;64.85
54854;BME280;40747;49.480;8.658;2023-03-03T16:30:12;100753.25;;;7.90;65.13
54854;BME280;40747;49.480;8.658;2023-03-03T16:32:54;100740.38;;;7.69;65.55
54854;BME280;40747;49.480;8.658;2023-03-03T16:35:24;100739.56;;;7.67;65.80
54854;BME280;40747;49.480;8.658;2023-03-03T16:37:57;100754.41;;;7.67;65.69
54854;BME280;40747;49.480;8.658;2023-03-03T16:40:44;100761.31;;;7.74;66.04
54854;BME280;40747;49.480;8.658;2023-03-03T16:43:38;100764.88;;;7.67;65.96
54854;BME280;40747;49.480;8.658;2023-03-03T16:46:21;100774.75;;;7.45;66.09
54854;BME280;40747;49.480;8.658;2023-03-03T16:49:05;100767.75;;;7.47;65.78
54854;BME280;40747;49.480;8.658;2023-03-03T16:51:40;100772.16;;;7.40;65.20